Terminal Aerodrome Forecast
Issued by NWS Jackson, MS

Current Version | Previous Version | Text Only | Print | Product List | Glossary On
Versions: 1 2 3 4 5 6 7 8 9 10 11 12 13 14 15 16 17 18
000
FTUS44 KJAN 252347
TAFHBG
TAF
KHBG 252347Z 2600/2624 14006KT P6SM VCSH FEW010 SCT025 BKN070
     FM260600 14004KT 4SM BR BKN004 OVC010
     FM261000 17006KT 6SM -TSRA BKN010 BKN020CB
     FM261600 18010KT P6SM VCTS BKN015 BKN025CB=

USA.gov is the U.S. government's official web portal to all federal, state and local government web resources and services.